Terminal Aerodrome Forecast
Issued by NWS

Home | Current Version | Previous Version | Text Only | Print | Product List | Glossary On
Versions: 1 2 3 4 5 6 7 8 9 10 11 12
000
FTUS45 KVEF 141100
TAFDAG
TAF
KDAG 141136Z 1412/1512 25008KT P6SM VCSH SCT100 BKN150
     FM142000 09010KT P6SM BKN100 BKN200 PROB30 1422/1502 P6SM TS
      BKN050CB
     FM150400 27007KT P6SM SCT100 BKN200=

USA.gov is the U.S. government's official web portal to all federal, state and local government web resources and services.